Elmendorf Air Force Base
PAED : now visible

Airfield :











YOU CAN JOIN US ON...

 
LOGIN :

Register | Disclaimer

   EN    FR    IT 

 









Legend :    VFR   Marginal VFR   IFR   Intensive IFR   Very Intensive IFR
Visi :
Ceiling :
>= 8 km
>= 3000ft
5 to 8 km
1000 to 3000 ft
1500m to 5 km
500 to 1000 ft
800 to 1500m
200 to 500 ft
< 800m
< 200 ft
Symbols :   Thunderstorms  Fog  Heavy snow  Heavy precipitations  Wind > 20 kt






- Airport Elevation : 212 ft
- IATA code : EDF


PAED - Elmendorf Air Force Base

CURRENT METAR :
  • 242255Z 26006KT 10SM SCT018 BKN020 OVC050 18/13 A3001 RMK AO2A SLP158 T01830134

EXPIRED METARs :
  • 242155Z 26005KT 10SM SCT018 BKN020 OVC100 18/13 A3000 RMK AO2A SLP155 T01780133
  • 242131Z 25006KT 10SM SCT018 BKN020 18/13 A3000 RMK AO2A SLP155
  • 242055Z 26006KT 10SM FEW014 BKN020 OVC100 17/13 A3000 RMK AO2A SLP155 T01720131 51002
  • 241955Z 26006KT 10SM FEW014 OVC020 17/14 A3000 RMK AO2A SLP155 T01720135
  • 241855Z 26006KT 10SM FEW010 OVC020 16/13 A3000 RMK AO2A SLP155 Q1015 T01620129

TAF TAF PAED
Valid from the 24 at 21:00 until the 26 at 03:00 UTC


242110Z 2421/2603 25006KT 9999 BKN020 BKN045 BKN150 QNH3000INS
BECMG 2500/2501 25009KT 9999 FEW020 SCT045 SCT150 QNH3002INS
BECMG 2508/2509 30003KT 9999 FEW010 OVC030 QNH3006INS
BECMG 2511/2512 33003KT 9999 OVC015 QNH3010INS
BECMG 2520/2521 33006KT 9999 FEW020 BKN045 QNH3007INS TX20/2502Z TN13/2515Z
PAZA FIR / North America



MET'MAP, your aeronautical weather chart ! - Copyright ORBIFLY December 2007 - Disclaimer

ORBIFLY MET'MAP TEAM :

Programming & Development : Alexandra Zaïnal
Original concept : Baudouin d'Aumeries
Technical & hardware support : Manuel Goepfert
Assistance : Marc-Olivier Méhu




SOURCES & CREDITS :

   NOAA       Earth
Advisory